createdAt,value
2022-12-15T00:00:51.178Z,20.65
2022-12-15T00:04:11.611Z,20.69
2022-12-15T00:07:31.981Z,20.68
2022-12-15T00:10:53.598Z,20.68
2022-12-15T00:14:13.959Z,20.71
2022-12-15T00:17:34.606Z,20.70
2022-12-15T00:20:54.946Z,20.74
2022-12-15T00:24:15.293Z,20.70
2022-12-15T00:27:36.729Z,20.74
2022-12-15T00:31:02.089Z,20.71
2022-12-15T00:34:22.701Z,20.70
2022-12-15T00:37:43.043Z,20.75
2022-12-15T00:40:45.870Z,20.73
2022-12-15T00:43:50.046Z,20.72
2022-12-15T00:46:55.748Z,20.67
2022-12-15T00:50:16.298Z,20.61
2022-12-15T00:53:36.745Z,20.61
2022-12-15T00:56:57.138Z,20.50
2022-12-15T01:00:19.056Z,20.41
2022-12-15T01:03:40.450Z,20.42
2022-12-15T01:07:00.598Z,20.33
2022-12-15T01:10:21.114Z,20.27
2022-12-15T01:13:41.401Z,20.25
2022-12-15T01:17:03.967Z,20.17
2022-12-15T01:20:18.481Z,20.12
2022-12-15T01:23:21.348Z,20.09
2022-12-15T01:26:25.089Z,19.98
2022-12-15T01:29:27.915Z,19.99
2022-12-15T01:32:32.047Z,19.97
2022-12-15T01:35:34.819Z,19.95
2022-12-15T01:38:37.566Z,19.85
2022-12-15T01:41:40.402Z,19.83
2022-12-15T01:44:43.315Z,19.76
2022-12-15T01:47:47.587Z,19.74
2022-12-15T01:50:53.071Z,19.73
2022-12-15T01:53:58.550Z,19.67
2022-12-15T01:57:04.221Z,19.61
2022-12-15T02:00:08.478Z,19.61
2022-12-15T02:03:13.252Z,19.57
2022-12-15T02:06:16.645Z,19.56
2022-12-15T02:09:20.414Z,19.50
2022-12-15T02:12:29.145Z,19.47
2022-12-15T02:15:34.905Z,19.43
2022-12-15T02:18:43.125Z,19.44
2022-12-15T02:21:48.594Z,19.42
2022-12-15T02:25:07.725Z,19.38
2022-12-15T02:28:12.200Z,19.34
2022-12-15T02:31:35.862Z,19.29
2022-12-15T02:34:42.469Z,19.22
2022-12-15T02:37:46.245Z,19.25
2022-12-15T02:40:58.157Z,19.16
2022-12-15T02:44:01.605Z,19.13
2022-12-15T02:47:13.547Z,19.12
2022-12-15T02:50:23.681Z,19.10
2022-12-15T02:53:36.815Z,19.11
2022-12-15T02:56:43.722Z,19.10
2022-12-15T02:59:55.537Z,19.08
2022-12-15T03:03:00.064Z,19.14
2022-12-15T03:06:03.944Z,19.26
2022-12-15T03:09:06.924Z,19.30
2022-12-15T03:12:10.572Z,19.35
2022-12-15T03:15:13.419Z,19.44
2022-12-15T03:18:17.581Z,19.53
2022-12-15T03:21:20.421Z,19.60
2022-12-15T03:24:23.186Z,19.65
2022-12-15T03:27:26.014Z,19.76
2022-12-15T03:30:28.782Z,19.79
2022-12-15T03:33:33.991Z,19.78
2022-12-15T03:36:37.101Z,19.85
2022-12-15T03:39:39.923Z,19.83
2022-12-15T03:42:51.027Z,19.83
2022-12-15T03:45:53.807Z,19.84
2022-12-15T03:48:58.641Z,19.87
2022-12-15T03:52:01.374Z,19.89
2022-12-15T03:55:04.369Z,19.93
2022-12-15T03:58:07.211Z,19.89
2022-12-15T04:01:11.096Z,19.92
2022-12-15T04:04:15.401Z,19.96
2022-12-15T04:07:18.217Z,19.97
2022-12-15T04:10:21.019Z,19.97
2022-12-15T04:13:23.790Z,20.00
2022-12-15T04:16:26.574Z,19.99
2022-12-15T04:19:44.574Z,20.02
2022-12-15T04:22:48.653Z,20.03
2022-12-15T04:26:08.764Z,20.05
2022-12-15T04:29:28.730Z,20.09
2022-12-15T04:32:49.948Z,20.07
2022-12-15T04:36:11.978Z,20.10
2022-12-15T04:39:32.543Z,20.11
2022-12-15T04:42:54.054Z,20.09
2022-12-15T04:46:14.515Z,20.13
2022-12-15T04:49:34.391Z,20.14
2022-12-15T04:52:55.933Z,20.14
2022-12-15T04:56:18.598Z,20.12
2022-12-15T04:59:38.914Z,20.14
2022-12-15T05:02:59.309Z,20.13
2022-12-15T05:06:19.866Z,20.11
2022-12-15T05:09:41.466Z,20.14
2022-12-15T05:13:01.829Z,20.14
2022-12-15T05:16:23.223Z,20.10
2022-12-15T05:19:43.609Z,20.13
2022-12-15T05:23:04.205Z,20.14
2022-12-15T05:26:27.860Z,20.19
2022-12-15T05:29:48.370Z,20.20
2022-12-15T05:32:51.187Z,20.18
2022-12-15T05:35:53.993Z,20.18
2022-12-15T05:38:56.760Z,20.19
2022-12-15T05:42:00.974Z,20.22
2022-12-15T05:45:05.249Z,20.22
2022-12-15T05:48:08.107Z,20.22
2022-12-15T05:51:12.013Z,20.23
2022-12-15T05:54:16.528Z,20.24
2022-12-15T05:57:20.666Z,20.24
2022-12-15T06:00:23.674Z,20.21
2022-12-15T06:03:26.446Z,20.23
2022-12-15T06:06:29.526Z,20.30
2022-12-15T06:09:32.319Z,20.25
2022-12-15T06:12:36.490Z,20.24
2022-12-15T06:15:39.342Z,20.25
2022-12-15T06:18:42.869Z,20.24
2022-12-15T06:21:45.726Z,20.25
2022-12-15T06:24:48.490Z,20.22
2022-12-15T06:27:55.803Z,20.21
2022-12-15T06:31:03.178Z,20.22
2022-12-15T06:34:07.771Z,20.23
2022-12-15T06:37:10.627Z,20.23
2022-12-15T06:40:13.485Z,20.26
2022-12-15T06:43:17.665Z,20.27
2022-12-15T06:46:20.934Z,20.27
2022-12-15T06:49:23.705Z,20.25
2022-12-15T06:52:26.498Z,20.24
2022-12-15T06:55:29.296Z,20.19
2022-12-15T06:58:33.496Z,20.16
2022-12-15T07:01:36.575Z,20.11
2022-12-15T07:04:39.487Z,20.06
2022-12-15T07:07:42.266Z,20.02
2022-12-15T07:10:45.315Z,19.96
2022-12-15T07:13:51.505Z,19.90
2022-12-15T07:16:54.326Z,19.90
2022-12-15T07:19:57.207Z,19.94
2022-12-15T07:23:00.766Z,19.95
2022-12-15T07:26:11.106Z,19.99
2022-12-15T07:29:22.668Z,20.04
2022-12-15T07:32:26.174Z,20.05
2022-12-15T07:35:28.970Z,20.07
2022-12-15T07:38:32.224Z,20.09
2022-12-15T07:41:35.498Z,20.13
2022-12-15T07:44:39.716Z,20.12
2022-12-15T07:47:42.634Z,20.17
2022-12-15T07:50:45.442Z,20.16
2022-12-15T07:53:53.165Z,20.21
2022-12-15T07:56:55.952Z,20.19
2022-12-15T08:00:00.114Z,20.21
2022-12-15T08:03:03.663Z,20.21
2022-12-15T08:06:06.966Z,20.24
2022-12-15T08:09:10.025Z,20.28
2022-12-15T08:12:12.838Z,20.25
2022-12-15T08:15:17.096Z,20.26
2022-12-15T08:18:19.958Z,20.28
2022-12-15T08:21:22.730Z,20.29
2022-12-15T08:24:25.551Z,20.27
2022-12-15T08:27:28.403Z,20.30
2022-12-15T08:30:34.422Z,20.30
2022-12-15T08:33:37.775Z,20.32
2022-12-15T08:36:40.568Z,20.32
2022-12-15T08:39:43.715Z,20.33
2022-12-15T08:42:46.588Z,20.37
2022-12-15T08:45:50.825Z,20.35
2022-12-15T08:48:54.081Z,20.36
2022-12-15T08:51:56.861Z,20.34
2022-12-15T08:54:59.646Z,20.34
2022-12-15T08:58:02.449Z,20.35
2022-12-15T09:01:07.696Z,20.37
2022-12-15T09:04:10.825Z,20.36
2022-12-15T09:07:13.731Z,20.36
2022-12-15T09:10:16.595Z,20.34
2022-12-15T09:13:19.506Z,20.37
2022-12-15T09:16:23.813Z,20.37
2022-12-15T09:19:26.646Z,20.37
2022-12-15T09:22:29.388Z,20.40
2022-12-15T09:25:32.201Z,20.41
2022-12-15T09:28:35.066Z,20.41
2022-12-15T09:31:39.327Z,20.41
2022-12-15T09:34:42.694Z,20.43
2022-12-15T09:37:51.548Z,20.40
2022-12-15T09:40:54.767Z,20.42
2022-12-15T09:43:59.991Z,20.45
2022-12-15T09:47:12.134Z,20.43
2022-12-15T09:50:16.566Z,20.44
2022-12-15T09:53:53.046Z,20.46
2022-12-15T09:56:49.682Z,20.44
2022-12-15T10:00:00.476Z,20.45
2022-12-15T10:03:15.136Z,20.44
2022-12-15T13:18:08.787Z,17.61
2022-12-15T13:21:16.896Z,17.78
2022-12-15T13:24:23.880Z,17.86
2022-12-15T13:27:35.884Z,17.94
2022-12-15T13:30:38.822Z,18.03
2022-12-15T13:33:52.475Z,18.08
2022-12-15T13:36:59.840Z,18.14
2022-12-15T13:40:02.802Z,18.16
2022-12-15T13:43:11.501Z,18.21
2022-12-15T13:46:17.470Z,18.24
2022-12-15T13:49:25.357Z,18.28
2022-12-15T13:53:08.517Z,18.55
2022-12-15T13:55:58.333Z,18.57
2022-12-15T13:59:04.350Z,18.61
2022-12-15T14:02:23.455Z,18.69
2022-12-15T14:05:27.864Z,18.75
2022-12-15T14:08:31.656Z,18.81
2022-12-15T14:11:52.589Z,18.90
2022-12-15T14:14:56.306Z,18.91
2022-12-15T14:18:01.305Z,18.93
2022-12-15T14:21:08.413Z,18.99
2022-12-15T14:24:39.451Z,18.97
2022-12-15T14:27:43.040Z,19.03
2022-12-15T14:30:45.971Z,19.05
2022-12-15T14:33:54.711Z,19.06
2022-12-15T14:37:00.442Z,19.14
2022-12-15T14:40:03.398Z,19.13
2022-12-15T14:43:07.478Z,19.14
2022-12-15T14:46:12.399Z,19.20
2022-12-15T14:49:19.586Z,19.24
2022-12-15T14:52:27.995Z,19.25
2022-12-15T14:55:35.398Z,19.31
2022-12-15T14:58:40.827Z,19.27
2022-12-15T15:01:58.954Z,19.27
2022-12-15T15:05:04.158Z,19.33
2022-12-15T15:08:12.568Z,19.33
2022-12-15T15:11:22.298Z,19.36
2022-12-15T15:14:27.233Z,19.38
2022-12-15T15:17:34.080Z,19.38
2022-12-15T15:20:37.892Z,19.42
2022-12-15T15:23:42.234Z,19.42
2022-12-15T15:26:45.167Z,19.42
2022-12-15T15:29:49.047Z,19.44
2022-12-15T15:32:56.473Z,19.48
2022-12-15T15:35:59.945Z,19.52
2022-12-15T15:39:04.919Z,19.58
2022-12-15T15:42:12.358Z,19.54
2022-12-15T15:45:15.807Z,19.53
2022-12-15T15:48:22.387Z,19.53
2022-12-15T15:51:25.996Z,19.51
2022-12-15T15:54:34.900Z,19.53
2022-12-15T15:57:37.779Z,19.55
2022-12-15T16:00:41.086Z,19.55
2022-12-15T16:03:44.028Z,19.56
2022-12-15T16:06:47.961Z,19.60
2022-12-15T16:09:52.577Z,19.59
2022-12-15T16:12:56.715Z,19.61
2022-12-15T16:15:59.544Z,19.63
2022-12-15T16:19:03.515Z,19.67
2022-12-15T16:22:06.319Z,19.65
2022-12-15T16:25:14.971Z,19.65
2022-12-15T16:28:18.623Z,19.64
2022-12-15T16:31:29.123Z,19.70
2022-12-15T16:34:31.999Z,19.66
2022-12-15T16:37:39.642Z,19.71
2022-12-15T16:40:44.066Z,19.69
2022-12-15T16:43:48.306Z,19.79
2022-12-15T16:46:51.500Z,19.79
2022-12-15T16:49:54.333Z,19.89
2022-12-15T16:52:59.070Z,19.78
2022-12-15T16:56:04.283Z,19.72
2022-12-15T16:59:32.028Z,19.75
2022-12-15T17:02:31.648Z,19.74
2022-12-15T17:05:35.434Z,19.77
2022-12-15T17:08:40.138Z,19.75
2022-12-15T17:11:44.451Z,19.80
2022-12-15T17:14:47.301Z,19.78
2022-12-15T17:17:50.502Z,19.79
2022-12-15T17:21:03.352Z,19.81
2022-12-15T17:24:07.818Z,19.86
2022-12-15T17:27:19.632Z,19.80
2022-12-15T17:30:22.500Z,19.81
2022-12-15T17:33:26.295Z,19.82
2022-12-15T17:36:29.555Z,19.81
2022-12-15T17:39:34.552Z,19.83
2022-12-15T17:42:38.806Z,19.79
2022-12-15T17:45:41.777Z,19.82
2022-12-15T17:48:44.612Z,19.82
2022-12-15T17:51:48.089Z,19.83
2022-12-15T17:54:51.653Z,19.86
2022-12-15T17:57:56.450Z,19.86
2022-12-15T18:00:59.347Z,19.86
2022-12-15T18:04:02.218Z,19.89
2022-12-15T18:07:05.344Z,19.90
2022-12-15T18:10:10.674Z,19.90
2022-12-15T18:13:18.785Z,19.90
2022-12-15T18:16:21.602Z,19.93
2022-12-15T18:19:24.527Z,19.92
2022-12-15T18:22:27.521Z,19.94
2022-12-15T18:25:31.961Z,19.95
2022-12-15T18:28:36.473Z,19.94
2022-12-15T18:31:40.511Z,19.95
2022-12-15T18:34:43.587Z,19.96
2022-12-15T18:37:47.203Z,19.99
2022-12-15T18:40:51.309Z,19.99
2022-12-15T18:43:58.703Z,19.96
2022-12-15T18:47:01.682Z,19.92
2022-12-15T18:50:04.801Z,19.90
2022-12-15T18:53:14.187Z,19.88
2022-12-15T18:56:19.492Z,19.81
2022-12-15T18:59:23.674Z,19.75
2022-12-15T19:02:26.629Z,19.69
2022-12-15T19:05:30.053Z,19.66
2022-12-15T19:08:36.833Z,19.64
2022-12-15T19:11:39.877Z,19.56
2022-12-15T19:14:44.260Z,19.58
2022-12-15T19:18:04.484Z,19.51
2022-12-15T19:21:30.570Z,19.48
2022-12-15T19:24:56.369Z,19.41
2022-12-15T19:28:00.047Z,19.41
2022-12-15T19:31:04.431Z,19.37
2022-12-15T19:34:08.239Z,19.35
2022-12-15T19:37:13.749Z,19.29
2022-12-15T19:40:22.321Z,19.24
2022-12-15T19:43:25.640Z,19.23
2022-12-15T19:46:29.851Z,19.20
2022-12-15T19:49:32.703Z,19.17
2022-12-15T19:52:35.502Z,19.11
2022-12-15T19:55:38.476Z,19.09
2022-12-15T19:58:41.825Z,19.06
2022-12-15T20:01:46.119Z,19.02
2022-12-15T20:04:49.720Z,18.99
2022-12-15T20:07:53.099Z,18.96
2022-12-15T20:10:56.335Z,18.93
2022-12-15T20:13:59.596Z,18.90
2022-12-15T20:17:04.090Z,18.89
2022-12-15T20:20:07.531Z,18.83
2022-12-15T20:23:13.811Z,18.81
2022-12-15T20:26:16.725Z,18.81
2022-12-15T20:29:22.708Z,18.77
2022-12-15T20:32:26.931Z,18.83
2022-12-15T20:35:31.619Z,18.79
2022-12-15T20:38:34.925Z,18.77
2022-12-15T20:41:37.821Z,18.75
2022-12-15T20:44:40.684Z,18.77
2022-12-15T20:47:46.628Z,18.82
2022-12-15T20:50:50.325Z,18.90
2022-12-15T20:53:53.788Z,18.94
2022-12-15T20:56:58.607Z,19.05
2022-12-15T21:00:01.358Z,19.12
2022-12-15T21:03:15.840Z,19.22
2022-12-15T21:06:19.046Z,19.28
2022-12-15T21:09:22.229Z,19.32
2022-12-15T21:12:27.526Z,19.36
2022-12-15T21:15:30.306Z,19.43
2022-12-15T21:21:57.350Z,19.46
2022-12-15T21:25:00.976Z,19.48
2022-12-15T21:28:03.813Z,19.52
2022-12-15T21:31:06.933Z,19.54
2022-12-15T21:34:11.178Z,19.55
2022-12-15T21:37:21.541Z,19.57
2022-12-15T21:40:26.244Z,19.58
2022-12-15T21:43:31.364Z,19.63
2022-12-15T21:46:34.252Z,19.62
2022-12-15T21:49:38.405Z,19.64
2022-12-15T21:52:42.751Z,19.64
2022-12-15T21:55:46.844Z,19.64
2022-12-15T21:58:51.532Z,19.78
2022-12-15T22:01:55.448Z,19.87
2022-12-15T22:04:59.745Z,19.73
2022-12-15T22:08:12.029Z,19.75
2022-12-15T22:11:19.386Z,19.75
2022-12-15T22:14:25.275Z,19.76
2022-12-15T22:17:28.090Z,19.77
2022-12-15T22:20:32.351Z,19.77
2022-12-15T22:23:35.478Z,19.82
2022-12-15T22:26:38.757Z,19.85
2022-12-15T22:29:41.970Z,19.82
2022-12-15T22:32:45.054Z,19.86
2022-12-15T22:35:49.261Z,19.86
2022-12-15T22:38:52.038Z,19.84
2022-12-15T22:41:54.941Z,19.88
2022-12-15T22:44:57.944Z,19.88
2022-12-15T22:48:01.096Z,19.91
2022-12-15T22:51:06.630Z,19.91
2022-12-15T22:54:16.296Z,19.95
2022-12-15T22:57:21.347Z,19.93
2022-12-15T23:00:24.166Z,19.91
2022-12-15T23:03:28.911Z,19.91
2022-12-15T23:06:33.479Z,19.90
2022-12-15T23:09:36.426Z,19.97
2022-12-15T23:12:38.203Z,19.91
2022-12-15T23:15:58.712Z,19.92
2022-12-15T23:19:01.753Z,19.98
2022-12-15T23:22:06.094Z,19.93
2022-12-15T23:25:09.334Z,19.97
2022-12-15T23:28:12.177Z,19.99
2022-12-15T23:31:15.011Z,20.00
2022-12-15T23:34:17.875Z,20.01
2022-12-15T23:37:22.100Z,20.02
2022-12-15T23:40:24.884Z,20.13
2022-12-15T23:43:28.697Z,20.20
2022-12-15T23:46:31.756Z,20.17
2022-12-15T23:49:34.679Z,20.22
2022-12-15T23:52:38.956Z,20.16
2022-12-15T23:55:41.772Z,20.06
2022-12-15T23:58:45.278Z,20.02
